createdAt,value
2017-11-10T00:00:19.334Z,8.56
2017-11-10T00:01:19.308Z,8.57
2017-11-10T00:02:19.315Z,8.53
2017-11-10T00:03:19.282Z,8.50
2017-11-10T00:04:19.281Z,8.52
2017-11-10T00:05:19.263Z,8.57
2017-11-10T00:06:19.257Z,8.53
2017-11-10T00:07:19.245Z,8.50
2017-11-10T00:08:19.234Z,8.47
2017-11-10T00:09:19.225Z,8.41
2017-11-10T00:10:19.209Z,8.50
2017-11-10T00:11:19.202Z,8.57
2017-11-10T00:12:19.194Z,8.55
2017-11-10T00:13:19.184Z,8.52
2017-11-10T00:14:19.177Z,8.41
2017-11-10T00:15:19.167Z,8.50
2017-11-10T00:16:19.159Z,8.50
2017-11-10T00:17:19.143Z,8.53
2017-11-10T00:18:20.060Z,8.53
2017-11-10T00:19:19.125Z,8.55
2017-11-10T00:20:19.115Z,8.53
2017-11-10T00:21:19.122Z,8.55
2017-11-10T00:22:19.099Z,8.50
2017-11-10T00:23:19.102Z,8.57
2017-11-10T00:24:19.087Z,8.60
2017-11-10T00:25:19.071Z,8.62
2017-11-10T00:26:20.061Z,8.52
2017-11-10T00:27:19.047Z,8.55
2017-11-10T00:28:19.043Z,8.59
2017-11-10T00:29:19.024Z,8.70
2017-11-10T00:30:19.553Z,8.57
2017-11-10T00:31:19.025Z,8.60
2017-11-10T00:32:19.005Z,8.57
2017-11-10T00:33:18.989Z,8.50
2017-11-10T00:34:18.983Z,8.53
2017-11-10T00:35:18.972Z,8.49
2017-11-10T00:36:18.974Z,8.52
2017-11-10T00:37:18.961Z,8.38
2017-11-10T00:38:18.946Z,8.38
2017-11-10T00:39:18.952Z,8.49
2017-11-10T00:40:18.939Z,8.32
2017-11-10T00:41:18.918Z,8.32
2017-11-10T00:42:18.909Z,8.38
2017-11-10T00:43:18.896Z,8.31
2017-11-10T00:44:18.888Z,8.39
2017-11-10T00:45:18.871Z,8.37
2017-11-10T00:46:18.868Z,8.28
2017-11-10T00:47:18.854Z,8.26
2017-11-10T00:48:18.850Z,8.29
2017-11-10T00:49:18.837Z,8.23
2017-11-10T00:50:18.830Z,8.29
2017-11-10T00:51:18.816Z,8.28
2017-11-10T00:52:18.811Z,8.24
2017-11-10T00:53:18.801Z,8.31
2017-11-10T00:54:18.791Z,8.31
2017-11-10T00:55:18.793Z,8.24
2017-11-10T00:56:18.769Z,8.26
2017-11-10T00:57:18.760Z,8.29
2017-11-10T00:58:18.754Z,8.24
2017-11-10T00:59:18.746Z,8.28
2017-11-10T01:00:18.731Z,8.21
2017-11-10T01:01:18.720Z,8.29
2017-11-10T01:02:18.710Z,8.31
2017-11-10T01:03:18.698Z,8.31
2017-11-10T01:04:21.570Z,8.38
2017-11-10T01:05:18.678Z,8.41
2017-11-10T01:06:18.668Z,8.32
2017-11-10T01:07:18.658Z,8.39
2017-11-10T01:08:18.647Z,8.34
2017-11-10T01:09:18.641Z,8.37
2017-11-10T01:10:18.635Z,8.34
2017-11-10T01:11:18.622Z,8.37
2017-11-10T01:12:18.629Z,8.35
2017-11-10T01:13:18.601Z,8.35
2017-11-10T01:14:18.587Z,8.44
2017-11-10T01:15:18.585Z,8.49
2017-11-10T01:16:18.576Z,8.47
2017-11-10T01:17:19.076Z,8.47
2017-11-10T01:18:18.601Z,8.42
2017-11-10T01:19:18.549Z,8.47
2017-11-10T01:20:18.536Z,8.47
2017-11-10T01:21:18.520Z,8.49
2017-11-10T01:22:18.518Z,8.42
2017-11-10T01:23:18.506Z,8.44
2017-11-10T01:24:19.078Z,8.52
2017-11-10T01:25:18.484Z,8.50
2017-11-10T01:26:18.475Z,8.47
2017-11-10T01:27:18.460Z,8.49
2017-11-10T01:28:18.455Z,8.56
2017-11-10T01:29:18.445Z,8.44
2017-11-10T01:30:19.101Z,8.52
2017-11-10T01:31:18.434Z,8.52
2017-11-10T01:32:18.623Z,8.57
2017-11-10T01:33:18.409Z,8.50
2017-11-10T01:34:18.394Z,8.44
2017-11-10T01:35:18.389Z,8.55
2017-11-10T01:36:18.374Z,8.57
2017-11-10T01:37:19.084Z,8.52
2017-11-10T01:38:18.362Z,8.42
2017-11-10T01:39:18.352Z,8.38
2017-11-10T01:40:18.340Z,8.41
2017-11-10T01:41:18.333Z,8.39
2017-11-10T01:42:18.316Z,8.41
2017-11-10T01:43:18.309Z,8.46
2017-11-10T01:44:18.303Z,8.41
2017-11-10T01:45:18.289Z,8.46
2017-11-10T01:46:18.278Z,8.39
2017-11-10T01:47:19.096Z,8.46
2017-11-10T01:48:18.261Z,8.46
2017-11-10T01:49:19.088Z,8.46
2017-11-10T01:50:18.247Z,8.47
2017-11-10T01:51:18.235Z,8.42
2017-11-10T01:52:18.227Z,8.44
2017-11-10T01:53:18.216Z,8.41
2017-11-10T01:54:19.088Z,8.47
2017-11-10T01:55:18.197Z,8.50
2017-11-10T01:56:18.186Z,8.46
2017-11-10T01:57:18.178Z,8.50
2017-11-10T01:58:18.163Z,8.39
2017-11-10T01:59:18.162Z,8.46
2017-11-10T02:00:18.150Z,8.44
2017-11-10T02:01:19.086Z,8.47
2017-11-10T02:02:18.133Z,8.50
2017-11-10T02:03:18.122Z,8.52
2017-11-10T02:04:18.106Z,8.52
2017-11-10T02:05:18.101Z,8.55
2017-11-10T02:06:18.086Z,8.53
2017-11-10T02:07:18.100Z,8.53
2017-11-10T02:08:18.071Z,8.50
2017-11-10T02:09:18.073Z,8.56
2017-11-10T02:10:18.050Z,8.49
2017-11-10T02:11:18.051Z,8.56
2017-11-10T02:12:18.039Z,8.55
2017-11-10T02:13:18.590Z,8.57
2017-11-10T02:14:18.003Z,8.60
2017-11-10T02:15:18.004Z,8.52
2017-11-10T02:16:18.001Z,8.57
2017-11-10T02:17:17.983Z,8.60
2017-11-10T02:18:17.975Z,8.62
2017-11-10T02:19:18.597Z,8.62
2017-11-10T02:20:17.951Z,8.62
2017-11-10T02:21:17.946Z,8.70
2017-11-10T02:22:17.930Z,8.72
2017-11-10T02:23:17.926Z,8.78
2017-11-10T02:24:17.921Z,8.65
2017-11-10T02:25:17.905Z,8.72
2017-11-10T02:26:17.894Z,8.60
2017-11-10T02:27:17.886Z,8.65
2017-11-10T02:28:17.874Z,8.67
2017-11-10T02:29:17.869Z,8.65
2017-11-10T02:30:17.861Z,8.70
2017-11-10T02:31:17.853Z,8.74
2017-11-10T02:32:18.605Z,8.71
2017-11-10T02:33:17.831Z,8.78
2017-11-10T02:34:17.822Z,8.77
2017-11-10T02:35:17.812Z,8.75
2017-11-10T02:36:17.803Z,8.71
2017-11-10T02:37:17.789Z,8.75
2017-11-10T02:38:17.779Z,8.71
2017-11-10T02:39:17.773Z,8.75
2017-11-10T02:40:17.768Z,8.70
2017-11-10T02:41:17.750Z,8.75
2017-11-10T02:42:17.744Z,8.71
2017-11-10T02:43:17.746Z,8.77
2017-11-10T02:44:17.735Z,8.72
2017-11-10T02:45:17.717Z,8.78
2017-11-10T02:46:17.707Z,8.72
2017-11-10T02:47:17.698Z,8.74
2017-11-10T02:48:17.690Z,8.77
2017-11-10T02:49:17.681Z,8.75
2017-11-10T02:50:17.671Z,8.80
2017-11-10T02:51:17.665Z,8.77
2017-11-10T02:52:17.651Z,8.72
2017-11-10T02:53:17.643Z,8.80
2017-11-10T02:54:17.639Z,8.80
2017-11-10T02:55:17.617Z,8.77
2017-11-10T02:56:17.624Z,8.74
2017-11-10T02:57:17.609Z,8.85
2017-11-10T02:58:17.589Z,8.75
2017-11-10T02:59:17.572Z,8.85
2017-11-10T03:00:17.568Z,8.78
2017-11-10T03:01:17.564Z,8.81
2017-11-10T03:02:17.557Z,8.75
2017-11-10T03:03:17.554Z,8.78
2017-11-10T03:04:17.537Z,8.80
2017-11-10T03:05:17.523Z,8.81
2017-11-10T03:06:17.515Z,8.74
2017-11-10T03:07:17.510Z,8.78
2017-11-10T03:08:17.500Z,8.78
2017-11-10T03:09:17.500Z,8.77
2017-11-10T03:10:18.119Z,8.81
2017-11-10T03:11:17.464Z,8.72
2017-11-10T03:12:17.456Z,8.80
2017-11-10T03:13:17.448Z,8.89
2017-11-10T03:14:17.438Z,8.72
2017-11-10T03:15:17.442Z,8.83
2017-11-10T03:16:17.426Z,8.85
2017-11-10T03:17:17.436Z,8.88
2017-11-10T03:18:17.402Z,8.78
2017-11-10T03:19:17.392Z,8.78
2017-11-10T03:20:17.387Z,8.83
2017-11-10T03:21:17.385Z,8.81
2017-11-10T03:22:18.119Z,8.78
2017-11-10T03:23:17.357Z,8.86
2017-11-10T03:24:17.349Z,8.88
2017-11-10T03:25:18.117Z,8.83
2017-11-10T03:26:17.325Z,8.78
2017-11-10T03:27:17.319Z,8.80
2017-11-10T03:28:17.422Z,8.83
2017-11-10T03:29:18.128Z,8.81
2017-11-10T03:30:17.286Z,8.81
2017-11-10T03:31:17.283Z,8.86
2017-11-10T03:32:17.270Z,8.86
2017-11-10T03:33:17.274Z,8.83
2017-11-10T03:34:17.258Z,8.83
2017-11-10T03:35:17.248Z,8.83
2017-11-10T03:36:17.232Z,8.85
2017-11-10T03:37:17.220Z,8.85
2017-11-10T03:38:17.210Z,8.80
2017-11-10T03:39:17.212Z,8.86
2017-11-10T03:40:18.130Z,8.75
2017-11-10T03:41:17.186Z,8.68
2017-11-10T03:42:17.177Z,8.72
2017-11-10T03:43:17.171Z,8.80
2017-11-10T03:44:17.153Z,8.71
2017-11-10T03:45:17.152Z,8.75
2017-11-10T03:46:17.139Z,8.78
2017-11-10T03:47:17.131Z,8.80
2017-11-10T03:48:17.128Z,8.77
2017-11-10T03:49:17.106Z,8.89
2017-11-10T03:50:17.090Z,8.78
2017-11-10T03:51:17.088Z,8.81
2017-11-10T03:52:17.632Z,8.85
2017-11-10T03:53:17.083Z,8.85
2017-11-10T03:54:17.061Z,8.83
2017-11-10T03:55:17.052Z,8.81
2017-11-10T03:56:17.046Z,8.81
2017-11-10T03:57:17.030Z,8.88
2017-11-10T03:58:17.037Z,8.85
2017-11-10T03:59:17.022Z,8.85
2017-11-10T04:00:17.003Z,8.81
2017-11-10T04:01:17.004Z,8.85
2017-11-10T04:02:16.988Z,8.83
2017-11-10T04:03:16.986Z,8.77
2017-11-10T04:04:16.982Z,8.78
2017-11-10T04:05:16.955Z,8.98
2017-11-10T04:06:16.952Z,8.93
2017-11-10T04:07:16.942Z,8.88
2017-11-10T04:08:16.931Z,8.95
2017-11-10T04:09:16.921Z,8.89
2017-11-10T04:10:16.916Z,8.92
2017-11-10T04:11:16.900Z,8.99
2017-11-10T04:12:16.893Z,8.95
2017-11-10T04:13:16.889Z,9.03
2017-11-10T04:14:16.884Z,8.92
2017-11-10T04:15:16.877Z,8.92
2017-11-10T04:16:16.858Z,8.90
2017-11-10T04:17:16.849Z,8.89
2017-11-10T04:18:16.840Z,8.93
2017-11-10T04:19:16.840Z,8.83
2017-11-10T04:20:17.645Z,8.95
2017-11-10T04:21:16.807Z,8.95
2017-11-10T04:22:17.643Z,8.96
2017-11-10T04:23:16.788Z,8.90
2017-11-10T04:24:16.781Z,8.99
2017-11-10T04:25:16.769Z,8.98
2017-11-10T04:26:17.642Z,8.93
2017-11-10T04:27:16.754Z,8.99
2017-11-10T04:28:16.742Z,8.95
2017-11-10T04:29:16.727Z,8.99
2017-11-10T04:30:16.723Z,8.95
2017-11-10T04:31:16.717Z,8.96
2017-11-10T04:32:16.707Z,9.01
2017-11-10T04:33:16.705Z,9.04
2017-11-10T04:34:16.691Z,9.06
2017-11-10T04:35:16.680Z,9.14
2017-11-10T04:36:16.684Z,9.01
2017-11-10T04:37:16.657Z,9.01
2017-11-10T04:38:16.648Z,9.01
2017-11-10T04:39:16.641Z,9.01
2017-11-10T04:40:16.633Z,9.01
2017-11-10T04:41:16.620Z,8.98
2017-11-10T04:42:16.607Z,8.95
2017-11-10T04:43:16.605Z,8.96
2017-11-10T04:44:16.591Z,8.93
2017-11-10T04:45:16.591Z,8.99
2017-11-10T04:46:16.576Z,9.01
2017-11-10T04:47:16.570Z,8.96
2017-11-10T04:48:16.560Z,8.99
2017-11-10T04:49:16.548Z,8.98
2017-11-10T04:50:16.545Z,8.88
2017-11-10T04:51:16.539Z,8.81
2017-11-10T04:52:17.154Z,8.85
2017-11-10T04:53:16.508Z,8.85
2017-11-10T04:54:16.502Z,8.81
2017-11-10T04:55:16.486Z,8.86
2017-11-10T04:56:16.473Z,8.85
2017-11-10T04:57:16.470Z,8.80
2017-11-10T04:58:19.176Z,8.80
2017-11-10T04:59:16.453Z,8.80
2017-11-10T05:00:16.449Z,8.85
2017-11-10T05:01:16.432Z,8.81
2017-11-10T05:02:16.426Z,8.85
2017-11-10T05:03:16.410Z,8.81
2017-11-10T05:04:16.408Z,8.83
2017-11-10T05:05:17.149Z,8.86
2017-11-10T05:06:16.388Z,8.85
2017-11-10T05:07:16.377Z,8.83
2017-11-10T05:08:16.368Z,8.85
2017-11-10T05:09:16.371Z,8.78
2017-11-10T05:10:16.582Z,8.88
2017-11-10T05:12:56.146Z,8.81
2017-11-10T05:13:55.397Z,8.88
2017-11-10T05:15:49.330Z,8.85
2017-11-10T05:16:48.757Z,8.85
2017-11-10T05:17:48.760Z,8.88
2017-11-10T05:18:49.324Z,8.83
2017-11-10T05:19:48.736Z,8.98
2017-11-10T05:20:48.727Z,8.95
2017-11-10T05:21:48.716Z,8.95
2017-11-10T05:22:49.329Z,8.99
2017-11-10T05:23:48.697Z,8.95
2017-11-10T05:24:49.348Z,8.99
2017-11-10T05:25:48.674Z,8.98
2017-11-10T05:26:48.668Z,8.98
2017-11-10T05:27:48.647Z,9.03
2017-11-10T05:28:48.646Z,9.01
2017-11-10T05:29:48.640Z,9.01
2017-11-10T05:30:48.625Z,8.92
2017-11-10T05:31:48.625Z,8.96
2017-11-10T05:32:48.612Z,9.03
2017-11-10T05:33:48.600Z,8.99
2017-11-10T05:34:48.596Z,8.99
2017-11-10T05:35:48.575Z,9.03
2017-11-10T05:36:48.579Z,8.98
2017-11-10T05:37:49.327Z,8.96
2017-11-10T05:38:48.546Z,8.93
2017-11-10T05:39:48.551Z,8.96
2017-11-10T05:40:48.530Z,8.92
2017-11-10T05:41:48.519Z,8.93
2017-11-10T05:42:48.514Z,8.98
2017-11-10T05:43:48.505Z,9.01
2017-11-10T05:44:51.333Z,8.95
2017-11-10T05:46:03.332Z,8.99
2017-11-10T05:46:48.466Z,8.96
2017-11-10T05:47:48.769Z,8.95
2017-11-10T05:48:48.452Z,8.99
2017-11-10T05:49:49.341Z,9.01
2017-11-10T05:50:48.476Z,9.11
2017-11-10T05:51:48.429Z,9.08
2017-11-10T05:52:48.409Z,9.03
2017-11-10T05:53:48.407Z,8.98
2017-11-10T05:54:48.398Z,9.03
2017-11-10T05:55:48.386Z,9.06
2017-11-10T05:56:49.343Z,9.06
2017-11-10T05:57:48.376Z,8.96
2017-11-10T05:58:48.367Z,8.98
2017-11-10T05:59:48.352Z,9.06
2017-11-10T06:00:48.354Z,9.03
2017-11-10T06:01:48.334Z,9.06
2017-11-10T06:02:48.327Z,9.04
2017-11-10T06:03:50.882Z,9.11
2017-11-10T06:04:48.317Z,9.11
2017-11-10T06:05:48.296Z,9.12
2017-11-10T06:06:48.288Z,9.09
2017-11-10T06:07:48.280Z,9.12
2017-11-10T06:08:48.262Z,9.14
2017-11-10T06:09:48.247Z,9.04
2017-11-10T06:10:48.250Z,9.01
2017-11-10T06:11:48.238Z,9.03
2017-11-10T06:12:48.234Z,9.03
2017-11-10T06:13:48.214Z,9.11
2017-11-10T06:14:48.216Z,9.06
2017-11-10T06:15:48.201Z,9.04
2017-11-10T06:16:48.197Z,8.99
2017-11-10T06:17:48.180Z,9.12
2017-11-10T06:18:48.177Z,9.04
2017-11-10T06:19:48.172Z,9.09
2017-11-10T06:20:48.151Z,9.04
2017-11-10T06:21:48.144Z,9.14
2017-11-10T06:22:48.153Z,8.99
2017-11-10T06:23:48.126Z,9.06
2017-11-10T06:24:48.112Z,9.06
2017-11-10T06:25:48.119Z,9.09
2017-11-10T06:27:02.845Z,9.09
2017-11-10T06:27:48.089Z,9.09
2017-11-10T06:28:48.074Z,9.08
2017-11-10T06:29:48.073Z,9.22
2017-11-10T06:30:48.063Z,9.15
2017-11-10T06:31:48.047Z,9.23
2017-11-10T06:32:48.043Z,9.11
2017-11-10T06:33:48.848Z,9.23
2017-11-10T06:34:48.011Z,9.23
2017-11-10T06:35:48.011Z,9.30
2017-11-10T06:36:48.002Z,9.26
2017-11-10T06:37:47.992Z,9.26
2017-11-10T06:38:47.982Z,9.26
2017-11-10T06:39:47.973Z,9.33
2017-11-10T06:40:47.968Z,9.30
2017-11-10T06:41:47.973Z,9.34
2017-11-10T06:42:47.958Z,9.34
2017-11-10T06:43:47.957Z,9.45
2017-11-10T06:44:47.930Z,9.37
2017-11-10T06:45:47.915Z,9.40
2017-11-10T06:46:47.910Z,9.34
2017-11-10T06:47:47.918Z,9.42
2017-11-10T06:48:47.911Z,9.37
2017-11-10T06:49:47.878Z,9.37
2017-11-10T06:50:47.885Z,9.42
2017-11-10T06:51:47.862Z,9.40
2017-11-10T06:52:47.860Z,9.50
2017-11-10T06:53:47.859Z,9.48
2017-11-10T06:54:47.823Z,9.51
2017-11-10T06:55:47.820Z,9.44
2017-11-10T06:56:47.818Z,9.50
2017-11-10T06:57:47.809Z,9.48
2017-11-10T06:58:47.798Z,9.52
2017-11-10T06:59:47.816Z,9.51
2017-11-10T07:00:47.787Z,9.54
2017-11-10T07:01:47.776Z,9.42
2017-11-10T07:02:47.757Z,9.45
2017-11-10T07:03:47.745Z,9.48
2017-11-10T07:04:47.742Z,9.50
2017-11-10T07:05:47.743Z,9.52
2017-11-10T07:06:47.721Z,9.51
2017-11-10T07:07:47.731Z,9.52
2017-11-10T07:08:47.696Z,9.55
2017-11-10T07:09:47.688Z,9.54
2017-11-10T07:10:47.686Z,9.59
2017-11-10T07:11:47.671Z,9.52
2017-11-10T07:12:47.669Z,9.51
2017-11-10T07:13:47.660Z,9.52
2017-11-10T07:14:47.651Z,9.59
2017-11-10T07:15:47.655Z,9.63
2017-11-10T07:16:47.630Z,9.51
2017-11-10T07:17:47.621Z,9.59
2017-11-10T07:18:47.623Z,9.55
2017-11-10T07:19:47.604Z,9.66
2017-11-10T07:20:47.595Z,9.57
2017-11-10T07:21:47.581Z,9.63
2017-11-10T07:22:47.571Z,9.60
2017-11-10T07:23:48.361Z,9.59
2017-11-10T07:24:47.556Z,9.63
2017-11-10T07:25:47.556Z,9.62
2017-11-10T07:26:47.543Z,9.59
2017-11-10T07:27:47.524Z,9.63
2017-11-10T07:28:47.521Z,9.69
2017-11-10T07:29:47.513Z,9.75
2017-11-10T07:30:47.508Z,9.73
2017-11-10T07:31:47.504Z,9.60
2017-11-10T07:32:47.484Z,9.63
2017-11-10T07:33:47.486Z,9.72
2017-11-10T07:34:55.164Z,9.63
2017-11-10T07:36:41.885Z,9.73
2017-11-10T07:37:42.409Z,9.69
2017-11-10T07:38:41.813Z,9.84
2017-11-10T07:39:41.801Z,9.88
2017-11-10T07:40:41.816Z,9.84
2017-11-10T07:41:41.781Z,9.78
2017-11-10T07:42:41.769Z,9.83
2017-11-10T07:43:41.768Z,9.84
2017-11-10T07:44:41.763Z,9.84
2017-11-10T07:45:41.752Z,9.81
2017-11-10T07:46:41.743Z,9.78
2017-11-10T07:47:41.733Z,9.83
2017-11-10T07:48:41.733Z,9.84
2017-11-10T07:49:41.709Z,9.83
2017-11-10T07:50:41.709Z,9.85
2017-11-10T07:51:41.696Z,9.84
2017-11-10T07:52:41.695Z,9.67
2017-11-10T07:53:41.698Z,9.73
2017-11-10T07:54:41.671Z,9.73
2017-11-10T07:55:41.658Z,9.72
2017-11-10T07:56:41.651Z,9.77
2017-11-10T07:57:41.647Z,9.69
2017-11-10T07:58:41.635Z,9.81
2017-11-10T07:59:41.623Z,9.87
2017-11-10T08:00:41.615Z,9.73
2017-11-10T08:01:41.606Z,9.80
2017-11-10T08:02:41.604Z,9.80
2017-11-10T08:03:41.592Z,9.81
2017-11-10T08:04:41.576Z,9.83
2017-11-10T08:05:41.568Z,9.85
2017-11-10T08:06:41.570Z,9.84
2017-11-10T08:07:41.562Z,9.80
2017-11-10T08:08:41.540Z,9.81
2017-11-10T08:09:41.545Z,9.81
2017-11-10T08:10:41.528Z,9.83
2017-11-10T08:11:41.512Z,9.73
2017-11-10T08:12:41.510Z,9.78
2017-11-10T08:13:41.511Z,9.73
2017-11-10T08:14:41.493Z,9.85
2017-11-10T08:15:41.483Z,9.87
2017-11-10T08:16:41.479Z,9.84
2017-11-10T08:17:41.490Z,9.91
2017-11-10T08:18:41.451Z,9.93
2017-11-10T08:19:41.473Z,9.98
2017-11-10T08:20:41.447Z,9.98
2017-11-10T08:21:41.446Z,9.93
2017-11-10T08:22:41.425Z,9.98
2017-11-10T08:23:41.409Z,10.01
2017-11-10T08:24:42.274Z,9.98
2017-11-10T08:25:41.387Z,9.96
2017-11-10T08:26:41.411Z,9.91
2017-11-10T08:27:41.388Z,9.85
2017-11-10T08:28:41.382Z,9.88
2017-11-10T08:29:41.384Z,9.83
2017-11-10T08:30:41.370Z,9.80
2017-11-10T08:31:41.352Z,9.81
2017-11-10T08:32:41.369Z,9.90
2017-11-10T08:33:41.919Z,9.96
2017-11-10T08:34:41.320Z,9.90
2017-11-10T08:35:41.331Z,9.90
2017-11-10T08:36:41.310Z,9.94
2017-11-10T08:37:41.287Z,9.96
2017-11-10T08:38:41.285Z,10.03
2017-11-10T08:39:41.280Z,10.03
2017-11-10T08:40:41.274Z,9.98
2017-11-10T08:41:41.274Z,9.98
2017-11-10T08:42:41.261Z,9.99
2017-11-10T08:43:41.259Z,9.96
2017-11-10T08:44:41.250Z,10.05
2017-11-10T08:45:41.224Z,10.08
2017-11-10T08:46:41.225Z,10.09
2017-11-10T08:47:41.944Z,10.09
2017-11-10T08:48:42.927Z,10.06
2017-11-10T08:49:41.193Z,9.94
2017-11-10T08:50:41.195Z,10.06
2017-11-10T08:51:41.171Z,9.96
2017-11-10T08:52:41.172Z,9.98
2017-11-10T08:53:41.173Z,9.99
2017-11-10T08:54:41.146Z,10.06
2017-11-10T08:55:41.148Z,9.98
2017-11-10T08:56:41.134Z,10.05
2017-11-10T08:57:41.127Z,10.06
2017-11-10T08:58:41.110Z,10.10
2017-11-10T08:59:41.119Z,10.05
2017-11-10T09:00:41.932Z,10.16
2017-11-10T09:01:41.093Z,10.16
2017-11-10T09:02:41.078Z,10.16
2017-11-10T09:03:41.069Z,10.10
2017-11-10T09:04:41.077Z,10.27
2017-11-10T09:05:41.951Z,10.21
2017-11-10T09:06:41.057Z,10.34
2017-11-10T09:07:41.068Z,10.38
2017-11-10T09:08:41.051Z,10.35
2017-11-10T09:09:41.031Z,10.41
2017-11-10T09:10:41.037Z,10.52
2017-11-10T09:11:41.022Z,10.52
2017-11-10T09:12:40.996Z,10.54
2017-11-10T09:13:41.019Z,10.65
2017-11-10T09:14:40.986Z,10.65
2017-11-10T09:15:40.985Z,10.73
2017-11-10T09:16:40.975Z,10.70
2017-11-10T09:17:40.961Z,10.73
2017-11-10T09:18:40.954Z,10.75
2017-11-10T09:19:40.951Z,10.82
2017-11-10T09:20:41.446Z,10.85
2017-11-10T09:21:40.935Z,10.87
2017-11-10T09:22:43.437Z,10.95
2017-11-10T09:23:40.916Z,11.05
2017-11-10T09:24:40.897Z,11.03
2017-11-10T09:25:40.895Z,11.04
2017-11-10T09:26:40.889Z,11.11
2017-11-10T09:27:40.884Z,11.04
2017-11-10T09:28:40.877Z,11.09
2017-11-10T09:29:40.862Z,11.12
2017-11-10T09:30:40.872Z,11.08
2017-11-10T09:31:40.849Z,11.16
2017-11-10T09:32:40.856Z,11.19
2017-11-10T09:33:40.849Z,11.15
2017-11-10T09:34:40.831Z,11.20
2017-11-10T09:35:40.817Z,11.15
2017-11-10T09:36:40.816Z,11.15
2017-11-10T09:37:40.810Z,11.27
2017-11-10T09:38:40.793Z,11.19
2017-11-10T09:39:40.802Z,11.30
2017-11-10T09:40:40.785Z,11.19
2017-11-10T09:41:40.776Z,11.31
2017-11-10T09:42:40.766Z,11.23
2017-11-10T09:43:40.772Z,11.25
2017-11-10T09:44:40.754Z,11.25
2017-11-10T09:45:40.747Z,11.22
2017-11-10T09:46:40.757Z,11.22
2017-11-10T09:47:40.747Z,11.28
2017-11-10T09:48:40.730Z,11.18
2017-11-10T09:49:40.724Z,11.23
2017-11-10T09:50:41.094Z,11.16
2017-11-10T09:51:40.703Z,11.23
2017-11-10T09:52:40.710Z,11.27
2017-11-10T09:53:40.698Z,11.27
2017-11-10T09:54:40.675Z,11.19
2017-11-10T09:55:40.677Z,11.20
2017-11-10T09:56:40.666Z,11.20
2017-11-10T09:57:40.660Z,11.22
2017-11-10T09:58:40.653Z,11.20
2017-11-10T09:59:40.655Z,11.19
2017-11-10T10:00:40.639Z,11.23
2017-11-10T10:01:40.965Z,11.13
2017-11-10T10:02:40.625Z,11.12
2017-11-10T10:03:40.783Z,11.19
2017-11-10T10:04:40.622Z,11.20
2017-11-10T10:05:41.208Z,11.23
2017-11-10T10:06:40.604Z,11.27
2017-11-10T10:07:40.588Z,11.15
2017-11-10T10:08:40.869Z,11.23
2017-11-10T10:09:40.569Z,11.15
2017-11-10T10:10:40.569Z,11.19
2017-11-10T10:11:40.563Z,11.22
2017-11-10T10:12:40.562Z,11.22
2017-11-10T10:13:40.540Z,11.23
2017-11-10T10:14:40.541Z,11.27
2017-11-10T10:15:40.533Z,11.27
2017-11-10T10:16:40.516Z,11.28
2017-11-10T10:17:40.505Z,11.37
2017-11-10T10:18:40.504Z,11.28
2017-11-10T10:19:40.509Z,11.30
2017-11-10T10:20:40.505Z,11.27
2017-11-10T10:21:40.488Z,11.36
2017-11-10T10:22:40.472Z,11.46
2017-11-10T10:23:40.466Z,11.34
2017-11-10T10:24:40.464Z,11.45
2017-11-10T10:25:40.463Z,11.38
2017-11-10T10:26:40.462Z,11.43
2017-11-10T10:27:40.441Z,11.52
2017-11-10T10:28:40.427Z,11.51
2017-11-10T10:29:40.419Z,11.45
2017-11-10T10:30:40.417Z,11.51
2017-11-10T10:31:40.412Z,11.46
2017-11-10T10:32:40.415Z,11.51
2017-11-10T10:33:40.406Z,11.49
2017-11-10T10:34:40.388Z,11.52
2017-11-10T10:35:40.384Z,11.51
2017-11-10T10:36:40.374Z,11.51
2017-11-10T10:37:40.367Z,11.55
2017-11-10T10:38:40.378Z,11.59
2017-11-10T10:39:40.362Z,11.61
2017-11-10T10:40:40.344Z,11.51
2017-11-10T10:41:40.338Z,11.48
2017-11-10T10:42:40.347Z,11.58
2017-11-10T10:43:40.325Z,11.56
2017-11-10T10:44:40.332Z,11.61
2017-11-10T10:45:40.310Z,11.70
2017-11-10T10:46:40.312Z,11.74
2017-11-10T10:47:40.308Z,11.77
2017-11-10T10:48:40.299Z,11.79
2017-11-10T10:49:40.287Z,11.80
2017-11-10T10:50:40.272Z,11.82
2017-11-10T10:51:40.271Z,11.77
2017-11-10T10:52:40.261Z,11.85
2017-11-10T10:53:40.261Z,11.80
2017-11-10T10:54:40.253Z,11.91
2017-11-10T10:55:40.243Z,11.97
2017-11-10T10:56:40.251Z,12.03
2017-11-10T10:57:40.232Z,12.08
2017-11-10T10:58:40.223Z,12.05
2017-11-10T10:59:40.214Z,12.05
2017-11-10T11:00:40.214Z,12.04
2017-11-10T11:01:40.213Z,12.08
2017-11-10T11:02:40.191Z,12.00
2017-11-10T11:03:40.202Z,12.04
2017-11-10T11:04:40.187Z,12.04
2017-11-10T11:05:40.182Z,12.07
2017-11-10T11:06:40.165Z,11.95
2017-11-10T11:07:40.164Z,12.00
2017-11-10T11:08:40.161Z,11.95
2017-11-10T11:09:40.156Z,11.96
2017-11-10T11:10:40.152Z,11.84
2017-11-10T11:11:40.157Z,11.88
2017-11-10T11:12:40.128Z,11.95
2017-11-10T11:13:40.122Z,11.84
2017-11-10T11:14:40.114Z,11.85
2017-11-10T11:15:40.106Z,11.88
2017-11-10T11:16:40.113Z,11.95
2017-11-10T11:17:40.101Z,11.82
2017-11-10T11:18:40.092Z,11.97
2017-11-10T11:19:40.092Z,11.95
2017-11-10T11:20:40.079Z,11.84
2017-11-10T11:21:40.072Z,11.87
2017-11-10T11:22:40.066Z,11.96
2017-11-10T11:23:40.061Z,11.96
2017-11-10T11:24:40.065Z,11.89
2017-11-10T11:25:40.047Z,11.97
2017-11-10T11:26:40.041Z,11.95
2017-11-10T11:27:40.049Z,11.97
2017-11-10T11:28:40.040Z,11.99
2017-11-10T11:29:40.024Z,11.97
2017-11-10T11:30:40.010Z,12.03
2017-11-10T11:31:40.005Z,12.05
2017-11-10T11:32:40.016Z,12.00
2017-11-10T11:33:39.999Z,11.96
2017-11-10T11:34:39.982Z,11.97
2017-11-10T11:35:39.978Z,12.00
2017-11-10T11:36:39.978Z,12.00
2017-11-10T11:37:39.965Z,11.97
2017-11-10T11:38:39.965Z,12.04
2017-11-10T11:39:39.961Z,11.97
2017-11-10T11:40:39.968Z,12.05
2017-11-10T11:41:39.941Z,12.03
2017-11-10T11:42:39.956Z,11.93
2017-11-10T11:43:39.926Z,11.97
2017-11-10T11:44:42.032Z,11.97
2017-11-10T11:45:39.941Z,11.93
2017-11-10T11:46:39.926Z,11.95
2017-11-10T11:47:39.907Z,11.97
2017-11-10T11:48:39.896Z,11.99
2017-11-10T11:49:39.890Z,12.00
2017-11-10T11:50:39.885Z,12.04
2017-11-10T11:51:39.876Z,11.97
2017-11-10T11:52:39.894Z,12.03
2017-11-10T11:53:39.860Z,12.08
2017-11-10T11:54:39.869Z,12.10
2017-11-10T11:55:39.845Z,12.05
2017-11-10T11:56:39.975Z,11.95
2017-11-10T11:57:39.843Z,12.03
2017-11-10T11:58:39.829Z,11.97
2017-11-10T11:59:39.846Z,12.10
2017-11-10T12:00:39.827Z,12.00
2017-11-10T12:01:39.812Z,12.07
2017-11-10T12:02:39.809Z,12.04
2017-11-10T12:03:39.812Z,11.99
2017-11-10T12:04:39.789Z,12.08
2017-11-10T12:05:39.798Z,12.07
2017-11-10T12:06:39.779Z,12.15
2017-11-10T12:07:39.783Z,12.15
2017-11-10T12:08:39.774Z,12.28
2017-11-10T12:09:39.791Z,12.30
2017-11-10T12:10:39.752Z,12.23
2017-11-10T12:11:39.745Z,12.30
2017-11-10T12:12:39.744Z,12.32
2017-11-10T12:13:39.817Z,12.32
2017-11-10T12:14:39.729Z,12.23
2017-11-10T12:15:39.723Z,12.40
2017-11-10T12:16:39.709Z,12.23
2017-11-10T12:17:39.782Z,12.18
2017-11-10T12:18:40.520Z,12.32
2017-11-10T12:19:39.700Z,12.32
2017-11-10T12:20:39.697Z,12.33
2017-11-10T12:21:39.674Z,12.43
2017-11-10T12:22:42.893Z,12.41
2017-11-10T12:23:40.510Z,12.41
2017-11-10T12:24:40.507Z,12.50
2017-11-10T12:25:39.651Z,12.46
2017-11-10T12:26:39.642Z,12.59
2017-11-10T12:27:41.210Z,12.51
2017-11-10T12:28:39.641Z,12.62
2017-11-10T12:29:39.950Z,12.53
2017-11-10T12:30:39.704Z,12.61
2017-11-10T12:31:39.777Z,12.55
2017-11-10T12:32:39.660Z,12.66
2017-11-10T12:33:39.606Z,12.68
2017-11-10T12:34:40.161Z,12.54
2017-11-10T12:35:40.678Z,12.54
2017-11-10T12:36:39.580Z,12.68
2017-11-10T12:37:39.580Z,12.65
2017-11-10T12:38:39.578Z,12.61
2017-11-10T12:39:39.585Z,12.55
2017-11-10T12:40:39.631Z,12.58
2017-11-10T12:41:39.562Z,12.43
2017-11-10T12:42:39.584Z,12.53
2017-11-10T12:43:39.557Z,12.55
2017-11-10T12:44:39.543Z,12.48
2017-11-10T12:45:39.536Z,12.50
2017-11-10T12:46:39.540Z,12.48
2017-11-10T12:47:39.571Z,12.44
2017-11-10T12:48:39.516Z,12.40
2017-11-10T12:49:39.511Z,12.38
2017-11-10T12:50:39.505Z,12.41
2017-11-10T12:51:39.502Z,12.30
2017-11-10T12:52:39.499Z,12.40
2017-11-10T12:53:39.499Z,12.35
2017-11-10T12:54:39.484Z,12.35
2017-11-10T12:55:40.031Z,12.38
2017-11-10T12:56:39.465Z,12.28
2017-11-10T12:57:39.470Z,12.25
2017-11-10T12:58:39.464Z,12.23
2017-11-10T12:59:39.455Z,12.14
2017-11-10T13:00:39.443Z,12.14
2017-11-10T13:01:39.439Z,12.14
2017-11-10T13:02:39.459Z,12.00
2017-11-10T13:03:40.046Z,11.99
2017-11-10T13:04:39.420Z,12.07
2017-11-10T13:05:39.412Z,11.96
2017-11-10T13:06:39.407Z,11.89
2017-11-10T13:07:39.409Z,11.85
2017-11-10T13:08:39.399Z,11.85
2017-11-10T13:09:39.393Z,11.85
2017-11-10T13:10:39.384Z,11.82
2017-11-10T13:11:39.376Z,11.76
2017-11-10T13:12:39.370Z,11.77